Antares — DFJQ — position and weather

sailwx.info

Track history (hours):
 
Tides and Currents Weather Stations Pressure Air Temp Water Temp Dewpoint Dewpoint Depression Visibility Wind Speed Wind Dir Waves Ship Positions

Antares

Last reported at 2016-Aug-29 12:20 UTC. Time now 2016-Aug-29 13:01 UTC.
Position N 51°55' E 003°45'.

Length 79 m; draft 4.6 m.

Type: Ship. MMSI: 218777000.

Date/timePositionNaut miles runAvg speedWind from/ knotsBaromVisibWave heightAir tempDewpointWater temp
2016-Aug-29 12:20N 51°55' E 003°45'0 0.0
2016-Aug-29 11:32N 51°55' E 003°45'0 0.1
2016-Aug-29 10:29N 51°55' E 003°45'0 0.1
2016-Aug-29 09:32N 51°55' E 003°45'0 0.0
2016-Aug-29 08:32N 51°55' E 003°45'0 0.0
2016-Aug-29 07:29N 51°55' E 003°45'0 0.0
2016-Aug-29 06:32N 51°55' E 003°45'0 0.0
2016-Aug-29 05:26N 51°55' E 003°45'0 0.0
2016-Aug-29 04:14N 51°55' E 003°45'0 0.1
2016-Aug-29 03:14N 51°55' E 003°45'0 0.0
2016-Aug-29 02:29N 51°55' E 003°45'0 0.0
2016-Aug-29 01:29N 51°55' E 003°45'0 0.0
2016-Aug-29 00:29N 51°55' E 003°45'0 0.0
2016-Aug-28 23:32N 51°55' E 003°45'0 0.0
2016-Aug-28 22:26N 51°55' E 003°45'0 0.0
2016-Aug-28 21:23N 51°55' E 003°45'0 0.0
2016-Aug-28 20:32N 51°55' E 003°45'0 0.0
2016-Aug-28 19:29N 51°55' E 003°45'0 0.0
2016-Aug-28 18:32N 51°55' E 003°45'0 0.0
2016-Aug-28 17:32N 51°55' E 003°45'0 0.0
2016-Aug-28 16:32N 51°55' E 003°45'0 0.0
2016-Aug-28 15:32N 51°55' E 003°45'0 0.0
2016-Aug-28 14:32N 51°55' E 003°45'0 0.0
2016-Aug-28 13:32N 51°55' E 003°45'0 0.0
2016-Aug-28 12:32N 51°55' E 003°45'0 0.0
2016-Aug-28 11:29N 51°55' E 003°45'0 0.0
2016-Aug-28 10:32N 51°55' E 003°45'0 0.0
2016-Aug-28 09:32N 51°55' E 003°45'0 0.0
2016-Aug-28 08:20N 51°55' E 003°45'0 0.0
2016-Aug-28 07:32N 51°55' E 003°45'0 0.1
2016-Aug-28 06:32N 51°55' E 003°45'0 0.0
2016-Aug-28 05:32N 51°55' E 003°45'0 0.0
2016-Aug-28 04:32N 51°55' E 003°45'0 0.0
2016-Aug-28 03:32N 51°55' E 003°45'0 0.1
2016-Aug-28 02:32N 51°55' E 003°45'0 0.1
2016-Aug-28 01:32N 51°55' E 003°45'0 0.0
2016-Aug-28 00:32N 51°55' E 003°45'0 0.0
2016-Aug-27 23:32N 51°55' E 003°45'0 0.0
2016-Aug-27 22:29N 51°55' E 003°45'0 0.0
2016-Aug-27 21:32N 51°55' E 003°45'0 0.0
2016-Aug-27 20:32N 51°55' E 003°45'0 0.1
2016-Aug-27 19:32N 51°55' E 003°45'0 0.1
2016-Aug-27 18:20N 51°55' E 003°45'0 0.0
2016-Aug-27 17:29N 51°55' E 003°45'0 0.0
2016-Aug-27 16:26N 51°55' E 003°45'0 0.0
2016-Aug-27 15:32N 51°55' E 003°45'0 0.0
2016-Aug-27 14:32N 51°55' E 003°45'0 0.0
2016-Aug-27 13:32N 51°55' E 003°45'0 0.0
2016-Aug-27 12:32N 51°55' E 003°45'0 0.1
2016-Aug-27 11:32N 51°55' E 003°45'0 0.0
2016-Aug-27 10:32N 51°55' E 003°45'0 0.0
2016-Aug-27 09:32N 51°55' E 003°45'0 0.0
2016-Aug-27 08:32N 51°55' E 003°45'0 0.1
2016-Aug-27 07:23N 51°55' E 003°45'0 0.0
2016-Aug-27 06:32N 51°55' E 003°45'6 2.9
2016-Aug-27 04:34N 51°57' E 003°36'9 8.5
2016-Aug-27 03:33N 51°54' E 003°23'8 8.5
2016-Aug-27 02:33N 51°52' E 003°10'18 8.9
2016-Aug-27 00:33N 51°46' E 002°42'9 9.4
2016-Aug-26 23:33N 51°40' E 002°31'1010.4
2016-Aug-26 22:33N 51°32' E 002°20'1110.5
2016-Aug-26 21:33N 51°23' E 002°11'1110.7
2016-Aug-26 20:33N 51°14' E 002°02'1211.6
2016-Aug-26 19:34N 51°08' E 001°46'1212.3
2016-Aug-26 18:33N 50°59' E 001°32'1211.7
2016-Aug-26 17:33N 50°49' E 001°22'2310.5
2016-Aug-26 15:24N 50°32' E 000°59'910.9
2016-Aug-26 14:33N 50°29' E 000°45'1211.1
2016-Aug-26 13:27N 50°26' E 000°27'1010.9
2016-Aug-26 12:33N 50°23' E 000°12'9 8.9
2016-Aug-26 11:33N 50°23' W 000°02'1010.0
2016-Aug-26 10:34N 50°33' W 000°07'1010.1
2016-Aug-26 09:33N 50°43' W 000°11'5 3.9
2016-Aug-26 08:23N 50°47' W 000°15'0 0.0
2016-Aug-26 07:29N 50°47' W 000°15'0 0.0
2016-Aug-26 06:23N 50°47' W 000°15'3 1.7
2016-Aug-26 04:33N 50°50' W 000°14'1 0.6
2016-Aug-26 03:33N 50°50' W 000°13'0 0.0
2016-Aug-26 02:24N 50°50' W 000°13'0 0.0
2016-Aug-26 01:33N 50°50' W 000°13'0 0.0
2016-Aug-26 00:33N 50°50' W 000°13'0 0.0
2016-Aug-25 23:33N 50°50' W 000°13'0 0.0
2016-Aug-25 22:30N 50°50' W 000°13'0 0.0
2016-Aug-25 21:33N 50°50' W 000°13'0 0.0
2016-Aug-25 20:33N 50°50' W 000°13'0 0.0
2016-Aug-25 19:33N 50°50' W 000°13'0 0.0
2016-Aug-25 18:21N 50°50' W 000°13'0 0.0
2016-Aug-25 17:33N 50°50' W 000°13'0 0.0
2016-Aug-25 16:30N 50°50' W 000°13'0 0.0
2016-Aug-25 15:33N 50°50' W 000°13'2 1.7
2016-Aug-25 14:33N 50°48' W 000°14'1 0.8
2016-Aug-25 13:29N 50°47' W 000°14'0 0.0
2016-Aug-25 12:32N 50°47' W 000°14'0 0.0
2016-Aug-25 11:32N 50°47' W 000°14'0 0.0
2016-Aug-25 10:32N 50°47' W 000°14'0 0.1
2016-Aug-25 09:29N 50°47' W 000°15'0 0.0
2016-Aug-25 08:29N 50°47' W 000°15'0 0.0
2016-Aug-25 07:29N 50°47' W 000°15'0 0.0
2016-Aug-25 06:33N 50°47' W 000°15'17 8.7
2016-Aug-25 04:33N 50°33' E 000°01'10 9.6
2016-Aug-25 03:29N 50°36' E 000°17'8 8.8
2016-Aug-25 02:33N 50°38' E 000°29'9 8.7
2016-Aug-25 01:33N 50°42' E 000°41'10 9.5
2016-Aug-25 00:33N 50°47' E 000°54'1110.7
2016-Aug-24 23:33N 50°54' E 001°07'1110.6
2016-Aug-24 22:33N 51°01' E 001°20'1110.6
2016-Aug-24 21:34N 51°07' E 001°33'1010.1
2016-Aug-24 20:34N 51°14' E 001°45'9 9.2
2016-Aug-24 19:33N 51°22' E 001°51'8 8.4
2016-Aug-24 18:33N 51°30' E 001°58'8 8.3
2016-Aug-24 17:33N 51°36' E 002°07'9 8.6
2016-Aug-24 16:33N 51°42' E 002°17'9 9.4
2016-Aug-24 15:33N 51°49' E 002°27'1310.6
2016-Aug-24 14:21N 51°58' E 002°41'1210.4
2016-Aug-24 13:12N 52°02' E 002°60'910.9
2016-Aug-24 12:24N 52°02' E 003°14'910.9
2016-Aug-24 11:33N 52°03' E 003°29'1010.5
2016-Aug-24 10:34N 52°03' E 003°46'9 9.4
2016-Aug-24 09:33N 52°00' E 004°01'8 7.8
2016-Aug-24 08:31N 51°56' E 004°12'0 0.0
2016-Aug-24 07:31N 51°56' E 004°12'0 0.0
2016-Aug-24 06:31N 51°56' E 004°12'0 0.0
2016-Aug-24 04:31N 51°56' E 004°12'0 0.0
2016-Aug-24 03:31N 51°56' E 004°12'0 0.0
2016-Aug-24 02:31N 51°56' E 004°12'0 0.0
2016-Aug-24 01:31N 51°56' E 004°12'0 0.0
2016-Aug-24 00:31N 51°56' E 004°12'0 0.0
2016-Aug-23 23:31N 51°56' E 004°12'0 0.0
2016-Aug-23 22:31N 51°56' E 004°12'0 0.0
2016-Aug-23 21:31N 51°56' E 004°12'0 0.0
2016-Aug-23 20:31N 51°56' E 004°12'0 0.3
2016-Aug-23 19:33N 51°55' E 004°12'0 0.0
2016-Aug-23 18:33N 51°55' E 004°12'0 0.0
2016-Aug-23 17:33N 51°55' E 004°12'0 0.0
2016-Aug-23 16:33N 51°55' E 004°12'2 1.8
2016-Aug-23 15:33N 51°57' E 004°10'9 9.2
2016-Aug-23 14:33N 52°00' E 003°56'8 7.8
2016-Aug-23 13:33N 52°05' E 003°46'1111.1
2016-Aug-23 12:34N 52°16' E 003°46'1211.6
2016-Aug-23 11:33N 52°27' E 003°50'1111.4
2016-Aug-23 10:33N 52°39' E 003°54'1110.6
2016-Aug-23 09:33N 52°49' E 003°58'9 9.2
2016-Aug-23 08:31N 52°58' E 004°03'9 9.0
2016-Aug-23 07:33N 53°04' E 004°14'9 8.6
2016-Aug-23 06:32N 53°09' E 004°25'20 9.6
2016-Aug-23 04:29N 53°27' E 004°38'1011.0
2016-Aug-23 03:33N 53°31' E 004°53'1110.9
2016-Aug-23 02:33N 53°35' E 005°11'1010.4
2016-Aug-23 01:33N 53°38' E 005°27'9 9.4
2016-Aug-23 00:33N 53°41' E 005°42'9 8.7
2016-Aug-22 23:33N 53°44' E 005°56'8 8.2
2016-Aug-22 22:33N 53°46' E 006°10'8 7.9
2016-Aug-22 21:33N 53°49' E 006°22'8 8.1
2016-Aug-22 20:33N 53°51' E 006°36'9 9.1
2016-Aug-22 19:33N 53°53' E 006°51'10 9.9
2016-Aug-22 18:33N 53°56' E 007°07'1010.0
2016-Aug-22 17:32N 53°59' E 007°23'10 9.7
2016-Aug-22 16:33N 54°01' E 007°39'10 9.7
2016-Aug-22 15:33N 54°01' E 007°56'10 9.5
2016-Aug-22 14:33N 54°01' E 008°12'9 9.0
2016-Aug-22 13:33N 53°59' E 008°27'8 8.0
2016-Aug-22 12:33N 53°56' E 008°40'5 4.9
2016-Aug-22 11:33N 53°52' E 008°43'0 0.1
2016-Aug-22 10:31N 53°52' E 008°43'0 0.0
2016-Aug-22 09:31N 53°52' E 008°43'0 0.0
2016-Aug-22 08:31N 53°52' E 008°43'0 0.0
2016-Aug-22 07:31N 53°52' E 008°43'0 0.0
2016-Aug-22 06:31N 53°52' E 008°43'0 0.0
2016-Aug-22 05:31N 53°52' E 008°43'0 0.0
2016-Aug-22 04:31N 53°52' E 008°43'0 0.0
2016-Aug-22 03:31N 53°52' E 008°43'0 0.0
2016-Aug-22 02:28N 53°52' E 008°43'0 0.0
2016-Aug-22 01:31N 53°52' E 008°43'0 0.0
2016-Aug-22 00:28N 53°52' E 008°43'0 0.0
2016-Aug-21 23:31N 53°52' E 008°43'0 0.0
2016-Aug-21 22:31N 53°52' E 008°43'0 0.0
2016-Aug-21 21:31N 53°52' E 008°43'0 0.0
2016-Aug-21 20:31N 53°52' E 008°43'0 0.0
2016-Aug-21 19:31N 53°52' E 008°43'0 0.0
2016-Aug-21 18:28N 53°52' E 008°43'0 0.0
2016-Aug-21 17:28N 53°52' E 008°43'0 0.0
2016-Aug-21 16:31N 53°52' E 008°43'0 0.0
2016-Aug-21 15:31N 53°52' E 008°43'0 0.0
2016-Aug-21 14:31N 53°52' E 008°43'0 0.1
2016-Aug-21 13:31N 53°52' E 008°43'0 0.0
2016-Aug-21 12:31N 53°52' E 008°43'0 0.0
2016-Aug-21 11:31N 53°52' E 008°43'0 0.0
2016-Aug-21 10:31N 53°52' E 008°43'0 0.0
2016-Aug-21 09:31N 53°52' E 008°43'0 0.0
2016-Aug-21 08:31N 53°52' E 008°43'0 0.0
2016-Aug-21 07:31N 53°52' E 008°43'0 0.0
2016-Aug-21 06:31N 53°52' E 008°43'0 0.1
2016-Aug-21 05:31N 53°52' E 008°43'0 0.0
2016-Aug-21 04:31N 53°52' E 008°43'0 0.0
2016-Aug-21 03:31N 53°52' E 008°43'0 0.0
2016-Aug-21 02:31N 53°52' E 008°43'0 0.0
2016-Aug-21 01:31N 53°52' E 008°43'0 0.0
2016-Aug-21 00:31N 53°52' E 008°43'0 0.0
2016-Aug-20 23:31N 53°52' E 008°43'0 0.0
2016-Aug-20 22:31N 53°52' E 008°43'0 0.0
2016-Aug-20 21:31N 53°52' E 008°43'0 0.0
2016-Aug-20 20:31N 53°52' E 008°43'0 0.0
2016-Aug-20 19:31N 53°52' E 008°43'0 0.0
2016-Aug-20 18:28N 53°52' E 008°43'0 0.0
2016-Aug-20 17:28N 53°52' E 008°43'0 0.0
2016-Aug-20 16:25N 53°52' E 008°43'0 0.1
2016-Aug-20 15:32N 53°52' E 008°43'0 0.3
2016-Aug-20 14:33N 53°52' E 008°43'2 2.1
2016-Aug-20 13:33N 53°51' E 008°46'5 4.9
2016-Aug-20 12:33N 53°51' E 008°54'4 3.6
2016-Aug-20 11:25N 53°52' E 009°01'0 0.0
2016-Aug-20 10:28N 53°52' E 009°01'0 0.1
2016-Aug-20 09:31N 53°52' E 009°01'0 0.1
2016-Aug-20 08:31N 53°52' E 009°01'0 0.0
2016-Aug-20 07:31N 53°52' E 009°01'0 0.0
2016-Aug-20 06:31N 53°52' E 009°01'0 0.0
2016-Aug-20 05:31N 53°52' E 009°01'0 0.0
2016-Aug-20 04:31N 53°52' E 009°01'0 0.1
2016-Aug-20 03:28N 53°52' E 009°01'0 0.0
2016-Aug-20 02:28N 53°52' E 009°01'0 0.0
2016-Aug-20 01:31N 53°52' E 009°01'0 0.0
2016-Aug-20 00:31N 53°52' E 009°01'0 0.0
2016-Aug-19 23:31N 53°52' E 009°01'0 0.0
2016-Aug-19 22:31N 53°52' E 009°01'0 0.1
2016-Aug-19 21:31N 53°52' E 009°00'0 0.0
2016-Aug-19 20:31N 53°52' E 009°00'0 0.0
2016-Aug-19 19:31N 53°52' E 009°00'0 0.0
2016-Aug-19 18:31N 53°52' E 009°01'7 7.7
2016-Aug-19 17:33N 53°53' E 009°13'1212.3
2016-Aug-19 16:33N 53°44' E 009°27'10 9.9
2016-Aug-19 15:33N 53°36' E 009°36'9 8.6
2016-Aug-19 14:33N 53°33' E 009°50'5 5.1
2016-Aug-19 13:33N 53°31' E 009°57'0 0.0
2016-Aug-19 12:30N 53°31' E 009°57'  
Track history (hours):
 
Tides and Currents Weather Stations Pressure Air Temp Water Temp Dewpoint Dewpoint Depression Visibility Wind Speed Wind Dir Waves Ship Positions

Antares

Last reported at 2016-Aug-29 12:20 UTC. Time now 2016-Aug-29 13:01 UTC.
Position N 51°55' E 003°45'.

Length 79 m; draft 4.6 m.

Type: Ship. MMSI: 218777000.

Date/timePositionNaut miles runAvg speedWind from/ knotsBaromVisibWave heightAir tempDewpointWater temp
2016-Aug-29 12:20N 51°55' E 003°45'0 0.0
2016-Aug-29 11:32N 51°55' E 003°45'0 0.1
2016-Aug-29 10:29N 51°55' E 003°45'0 0.1
2016-Aug-29 09:32N 51°55' E 003°45'0 0.0
2016-Aug-29 08:32N 51°55' E 003°45'0 0.0
2016-Aug-29 07:29N 51°55' E 003°45'0 0.0
2016-Aug-29 06:32N 51°55' E 003°45'0 0.0
2016-Aug-29 05:26N 51°55' E 003°45'0 0.0
2016-Aug-29 04:14N 51°55' E 003°45'0 0.1
2016-Aug-29 03:14N 51°55' E 003°45'0 0.0
2016-Aug-29 02:29N 51°55' E 003°45'0 0.0
2016-Aug-29 01:29N 51°55' E 003°45'0 0.0
2016-Aug-29 00:29N 51°55' E 003°45'0 0.0
2016-Aug-28 23:32N 51°55' E 003°45'0 0.0
2016-Aug-28 22:26N 51°55' E 003°45'0 0.0
2016-Aug-28 21:23N 51°55' E 003°45'0 0.0
2016-Aug-28 20:32N 51°55' E 003°45'0 0.0
2016-Aug-28 19:29N 51°55' E 003°45'0 0.0
2016-Aug-28 18:32N 51°55' E 003°45'0 0.0
2016-Aug-28 17:32N 51°55' E 003°45'0 0.0
2016-Aug-28 16:32N 51°55' E 003°45'0 0.0
2016-Aug-28 15:32N 51°55' E 003°45'0 0.0
2016-Aug-28 14:32N 51°55' E 003°45'0 0.0
2016-Aug-28 13:32N 51°55' E 003°45'0 0.0
2016-Aug-28 12:32N 51°55' E 003°45'0 0.0
2016-Aug-28 11:29N 51°55' E 003°45'0 0.0
2016-Aug-28 10:32N 51°55' E 003°45'0 0.0
2016-Aug-28 09:32N 51°55' E 003°45'0 0.0
2016-Aug-28 08:20N 51°55' E 003°45'0 0.0
2016-Aug-28 07:32N 51°55' E 003°45'0 0.1
2016-Aug-28 06:32N 51°55' E 003°45'0 0.0
2016-Aug-28 05:32N 51°55' E 003°45'0 0.0
2016-Aug-28 04:32N 51°55' E 003°45'0 0.0
2016-Aug-28 03:32N 51°55' E 003°45'0 0.1
2016-Aug-28 02:32N 51°55' E 003°45'0 0.1
2016-Aug-28 01:32N 51°55' E 003°45'0 0.0
2016-Aug-28 00:32N 51°55' E 003°45'0 0.0
2016-Aug-27 23:32N 51°55' E 003°45'0 0.0
2016-Aug-27 22:29N 51°55' E 003°45'0 0.0
2016-Aug-27 21:32N 51°55' E 003°45'0 0.0
2016-Aug-27 20:32N 51°55' E 003°45'0 0.1
2016-Aug-27 19:32N 51°55' E 003°45'0 0.1
2016-Aug-27 18:20N 51°55' E 003°45'0 0.0
2016-Aug-27 17:29N 51°55' E 003°45'0 0.0
2016-Aug-27 16:26N 51°55' E 003°45'0 0.0
2016-Aug-27 15:32N 51°55' E 003°45'0 0.0
2016-Aug-27 14:32N 51°55' E 003°45'0 0.0
2016-Aug-27 13:32N 51°55' E 003°45'0 0.0
2016-Aug-27 12:32N 51°55' E 003°45'0 0.1
2016-Aug-27 11:32N 51°55' E 003°45'0 0.0
2016-Aug-27 10:32N 51°55' E 003°45'0 0.0
2016-Aug-27 09:32N 51°55' E 003°45'0 0.0
2016-Aug-27 08:32N 51°55' E 003°45'0 0.1
2016-Aug-27 07:23N 51°55' E 003°45'0 0.0
2016-Aug-27 06:32N 51°55' E 003°45'6 2.9
2016-Aug-27 04:34N 51°57' E 003°36'9 8.5
2016-Aug-27 03:33N 51°54' E 003°23'8 8.5
2016-Aug-27 02:33N 51°52' E 003°10'18 8.9
2016-Aug-27 00:33N 51°46' E 002°42'9 9.4
2016-Aug-26 23:33N 51°40' E 002°31'1010.4
2016-Aug-26 22:33N 51°32' E 002°20'1110.5
2016-Aug-26 21:33N 51°23' E 002°11'1110.7
2016-Aug-26 20:33N 51°14' E 002°02'1211.6
2016-Aug-26 19:34N 51°08' E 001°46'1212.3
2016-Aug-26 18:33N 50°59' E 001°32'1211.7
2016-Aug-26 17:33N 50°49' E 001°22'2310.5
2016-Aug-26 15:24N 50°32' E 000°59'910.9
2016-Aug-26 14:33N 50°29' E 000°45'1211.1
2016-Aug-26 13:27N 50°26' E 000°27'1010.9
2016-Aug-26 12:33N 50°23' E 000°12'9 8.9
2016-Aug-26 11:33N 50°23' W 000°02'1010.0
2016-Aug-26 10:34N 50°33' W 000°07'1010.1
2016-Aug-26 09:33N 50°43' W 000°11'5 3.9
2016-Aug-26 08:23N 50°47' W 000°15'0 0.0
2016-Aug-26 07:29N 50°47' W 000°15'0 0.0
2016-Aug-26 06:23N 50°47' W 000°15'3 1.7
2016-Aug-26 04:33N 50°50' W 000°14'1 0.6
2016-Aug-26 03:33N 50°50' W 000°13'0 0.0
2016-Aug-26 02:24N 50°50' W 000°13'0 0.0
2016-Aug-26 01:33N 50°50' W 000°13'0 0.0
2016-Aug-26 00:33N 50°50' W 000°13'0 0.0
2016-Aug-25 23:33N 50°50' W 000°13'0 0.0
2016-Aug-25 22:30N 50°50' W 000°13'0 0.0
2016-Aug-25 21:33N 50°50' W 000°13'0 0.0
2016-Aug-25 20:33N 50°50' W 000°13'0 0.0
2016-Aug-25 19:33N 50°50' W 000°13'0 0.0
2016-Aug-25 18:21N 50°50' W 000°13'0 0.0
2016-Aug-25 17:33N 50°50' W 000°13'0 0.0
2016-Aug-25 16:30N 50°50' W 000°13'0 0.0
2016-Aug-25 15:33N 50°50' W 000°13'2 1.7
2016-Aug-25 14:33N 50°48' W 000°14'1 0.8
2016-Aug-25 13:29N 50°47' W 000°14'0 0.0
2016-Aug-25 12:32N 50°47' W 000°14'0 0.0
2016-Aug-25 11:32N 50°47' W 000°14'0 0.0
2016-Aug-25 10:32N 50°47' W 000°14'0 0.1
2016-Aug-25 09:29N 50°47' W 000°15'0 0.0
2016-Aug-25 08:29N 50°47' W 000°15'0 0.0
2016-Aug-25 07:29N 50°47' W 000°15'0 0.0
2016-Aug-25 06:33N 50°47' W 000°15'17 8.7
2016-Aug-25 04:33N 50°33' E 000°01'10 9.6
2016-Aug-25 03:29N 50°36' E 000°17'8 8.8
2016-Aug-25 02:33N 50°38' E 000°29'9 8.7
2016-Aug-25 01:33N 50°42' E 000°41'10 9.5
2016-Aug-25 00:33N 50°47' E 000°54'1110.7
2016-Aug-24 23:33N 50°54' E 001°07'1110.6
2016-Aug-24 22:33N 51°01' E 001°20'1110.6
2016-Aug-24 21:34N 51°07' E 001°33'1010.1
2016-Aug-24 20:34N 51°14' E 001°45'9 9.2
2016-Aug-24 19:33N 51°22' E 001°51'8 8.4
2016-Aug-24 18:33N 51°30' E 001°58'8 8.3
2016-Aug-24 17:33N 51°36' E 002°07'9 8.6
2016-Aug-24 16:33N 51°42' E 002°17'9 9.4
2016-Aug-24 15:33N 51°49' E 002°27'1310.6
2016-Aug-24 14:21N 51°58' E 002°41'1210.4
2016-Aug-24 13:12N 52°02' E 002°60'910.9
2016-Aug-24 12:24N 52°02' E 003°14'910.9
2016-Aug-24 11:33N 52°03' E 003°29'1010.5
2016-Aug-24 10:34N 52°03' E 003°46'9 9.4
2016-Aug-24 09:33N 52°00' E 004°01'8 7.8
2016-Aug-24 08:31N 51°56' E 004°12'0 0.0
2016-Aug-24 07:31N 51°56' E 004°12'0 0.0
2016-Aug-24 06:31N 51°56' E 004°12'0 0.0
2016-Aug-24 04:31N 51°56' E 004°12'0 0.0
2016-Aug-24 03:31N 51°56' E 004°12'0 0.0
2016-Aug-24 02:31N 51°56' E 004°12'0 0.0
2016-Aug-24 01:31N 51°56' E 004°12'0 0.0
2016-Aug-24 00:31N 51°56' E 004°12'0 0.0
2016-Aug-23 23:31N 51°56' E 004°12'0 0.0
2016-Aug-23 22:31N 51°56' E 004°12'0 0.0
2016-Aug-23 21:31N 51°56' E 004°12'0 0.0
2016-Aug-23 20:31N 51°56' E 004°12'0 0.3
2016-Aug-23 19:33N 51°55' E 004°12'0 0.0
2016-Aug-23 18:33N 51°55' E 004°12'0 0.0
2016-Aug-23 17:33N 51°55' E 004°12'0 0.0
2016-Aug-23 16:33N 51°55' E 004°12'2 1.8
2016-Aug-23 15:33N 51°57' E 004°10'9 9.2
2016-Aug-23 14:33N 52°00' E 003°56'8 7.8
2016-Aug-23 13:33N 52°05' E 003°46'1111.1
2016-Aug-23 12:34N 52°16' E 003°46'1211.6
2016-Aug-23 11:33N 52°27' E 003°50'1111.4
2016-Aug-23 10:33N 52°39' E 003°54'1110.6
2016-Aug-23 09:33N 52°49' E 003°58'9 9.2
2016-Aug-23 08:31N 52°58' E 004°03'9 9.0
2016-Aug-23 07:33N 53°04' E 004°14'9 8.6
2016-Aug-23 06:32N 53°09' E 004°25'20 9.6
2016-Aug-23 04:29N 53°27' E 004°38'1011.0
2016-Aug-23 03:33N 53°31' E 004°53'1110.9
2016-Aug-23 02:33N 53°35' E 005°11'1010.4
2016-Aug-23 01:33N 53°38' E 005°27'9 9.4
2016-Aug-23 00:33N 53°41' E 005°42'9 8.7
2016-Aug-22 23:33N 53°44' E 005°56'8 8.2
2016-Aug-22 22:33N 53°46' E 006°10'8 7.9
2016-Aug-22 21:33N 53°49' E 006°22'8 8.1
2016-Aug-22 20:33N 53°51' E 006°36'9 9.1
2016-Aug-22 19:33N 53°53' E 006°51'10 9.9
2016-Aug-22 18:33N 53°56' E 007°07'1010.0
2016-Aug-22 17:32N 53°59' E 007°23'10 9.7
2016-Aug-22 16:33N 54°01' E 007°39'10 9.7
2016-Aug-22 15:33N 54°01' E 007°56'10 9.5
2016-Aug-22 14:33N 54°01' E 008°12'9 9.0
2016-Aug-22 13:33N 53°59' E 008°27'8 8.0
2016-Aug-22 12:33N 53°56' E 008°40'5 4.9
2016-Aug-22 11:33N 53°52' E 008°43'0 0.1
2016-Aug-22 10:31N 53°52' E 008°43'0 0.0
2016-Aug-22 09:31N 53°52' E 008°43'0 0.0
2016-Aug-22 08:31N 53°52' E 008°43'0 0.0
2016-Aug-22 07:31N 53°52' E 008°43'0 0.0
2016-Aug-22 06:31N 53°52' E 008°43'0 0.0
2016-Aug-22 05:31N 53°52' E 008°43'0 0.0
2016-Aug-22 04:31N 53°52' E 008°43'0 0.0
2016-Aug-22 03:31N 53°52' E 008°43'0 0.0
2016-Aug-22 02:28N 53°52' E 008°43'0 0.0
2016-Aug-22 01:31N 53°52' E 008°43'0 0.0
2016-Aug-22 00:28N 53°52' E 008°43'0 0.0
2016-Aug-21 23:31N 53°52' E 008°43'0 0.0
2016-Aug-21 22:31N 53°52' E 008°43'0 0.0
2016-Aug-21 21:31N 53°52' E 008°43'0 0.0
2016-Aug-21 20:31N 53°52' E 008°43'0 0.0
2016-Aug-21 19:31N 53°52' E 008°43'0 0.0
2016-Aug-21 18:28N 53°52' E 008°43'0 0.0
2016-Aug-21 17:28N 53°52' E 008°43'0 0.0
2016-Aug-21 16:31N 53°52' E 008°43'0 0.0
2016-Aug-21 15:31N 53°52' E 008°43'0 0.0
2016-Aug-21 14:31N 53°52' E 008°43'0 0.1
2016-Aug-21 13:31N 53°52' E 008°43'0 0.0
2016-Aug-21 12:31N 53°52' E 008°43'0 0.0
2016-Aug-21 11:31N 53°52' E 008°43'0 0.0
2016-Aug-21 10:31N 53°52' E 008°43'0 0.0
2016-Aug-21 09:31N 53°52' E 008°43'0 0.0
2016-Aug-21 08:31N 53°52' E 008°43'0 0.0
2016-Aug-21 07:31N 53°52' E 008°43'0 0.0
2016-Aug-21 06:31N 53°52' E 008°43'0 0.1
2016-Aug-21 05:31N 53°52' E 008°43'0 0.0
2016-Aug-21 04:31N 53°52' E 008°43'0 0.0
2016-Aug-21 03:31N 53°52' E 008°43'0 0.0
2016-Aug-21 02:31N 53°52' E 008°43'0 0.0
2016-Aug-21 01:31N 53°52' E 008°43'0 0.0
2016-Aug-21 00:31N 53°52' E 008°43'0 0.0
2016-Aug-20 23:31N 53°52' E 008°43'0 0.0
2016-Aug-20 22:31N 53°52' E 008°43'0 0.0
2016-Aug-20 21:31N 53°52' E 008°43'0 0.0
2016-Aug-20 20:31N 53°52' E 008°43'0 0.0
2016-Aug-20 19:31N 53°52' E 008°43'0 0.0
2016-Aug-20 18:28N 53°52' E 008°43'0 0.0
2016-Aug-20 17:28N 53°52' E 008°43'0 0.0
2016-Aug-20 16:25N 53°52' E 008°43'0 0.1
2016-Aug-20 15:32N 53°52' E 008°43'0 0.3
2016-Aug-20 14:33N 53°52' E 008°43'2 2.1
2016-Aug-20 13:33N 53°51' E 008°46'5 4.9
2016-Aug-20 12:33N 53°51' E 008°54'4 3.6
2016-Aug-20 11:25N 53°52' E 009°01'0 0.0
2016-Aug-20 10:28N 53°52' E 009°01'0 0.1
2016-Aug-20 09:31N 53°52' E 009°01'0 0.1
2016-Aug-20 08:31N 53°52' E 009°01'0 0.0
2016-Aug-20 07:31N 53°52' E 009°01'0 0.0
2016-Aug-20 06:31N 53°52' E 009°01'0 0.0
2016-Aug-20 05:31N 53°52' E 009°01'0 0.0
2016-Aug-20 04:31N 53°52' E 009°01'0 0.1
2016-Aug-20 03:28N 53°52' E 009°01'0 0.0
2016-Aug-20 02:28N 53°52' E 009°01'0 0.0
2016-Aug-20 01:31N 53°52' E 009°01'0 0.0
2016-Aug-20 00:31N 53°52' E 009°01'0 0.0
2016-Aug-19 23:31N 53°52' E 009°01'0 0.0
2016-Aug-19 22:31N 53°52' E 009°01'0 0.1
2016-Aug-19 21:31N 53°52' E 009°00'0 0.0
2016-Aug-19 20:31N 53°52' E 009°00'0 0.0
2016-Aug-19 19:31N 53°52' E 009°00'0 0.0
2016-Aug-19 18:31N 53°52' E 009°01'7 7.7
2016-Aug-19 17:33N 53°53' E 009°13'1212.3
2016-Aug-19 16:33N 53°44' E 009°27'10 9.9
2016-Aug-19 15:33N 53°36' E 009°36'9 8.6
2016-Aug-19 14:33N 53°33' E 009°50'5 5.1
2016-Aug-19 13:33N 53°31' E 009°57'0 0.0
2016-Aug-19 12:30N 53°31' E 009°57'  

Dump ship's entire track history